Time;durP1;ratioP1;P1;durP2;ratioP2;P2;SDS_P1;SDS_P2;PMS_P1;PMS_P2;Temp;Humidity;BMP_temperature;BMP_pressure;BME280_temperature;BME280_humidity;BME280_pressure;Samples;Min_cycle;Max_cycle;Signal;HPM_P1;HPM_P2
2023/08/18 00:00:28;;;;;;;16.80;10.60;;;;;;;;;;5025762;28;20022;-68
2023/08/18 00:02:54;;;;;;;20.50;11.02;;;;;;;;;;5023143;28;20156;-68
2023/08/18 00:05:19;;;;;;;18.33;10.75;;;;;;;;;;5028930;28;20092;-70
2023/08/18 00:07:44;;;;;;;19.67;13.05;;;;;;;;;;5029539;28;20025;-70
2023/08/18 00:10:09;;;;;;;20.35;12.88;;;;;;;;;;5029450;28;20081;-70
2023/08/18 00:12:35;;;;;;;21.10;12.77;;;;;;;;;;5029755;28;20417;-70
2023/08/18 00:15:01;;;;;;;26.88;13.35;;;;;;;;;;5032760;28;20013;-70
2023/08/18 00:17:27;;;;;;;22.17;14.20;;;;;;;;;;5033548;28;20033;-69
2023/08/18 00:19:52;;;;;;;21.55;12.57;;;;;;;;;;5031863;28;20017;-70
2023/08/18 00:22:17;;;;;;;20.17;13.15;;;;;;;;;;5031020;28;20013;-70
2023/08/18 00:24:43;;;;;;;21.33;13.32;;;;;;;;;;5033132;28;20398;-69
2023/08/18 00:27:08;;;;;;;25.05;14.15;;;;;;;;;;5033554;28;20367;-68
2023/08/18 00:29:33;;;;;;;21.38;14.40;;;;;;;;;;5033099;28;20017;-69
2023/08/18 00:31:59;;;;;;;23.13;14.50;;;;;;;;;;5033289;28;20060;-71
2023/08/18 00:34:24;;;;;;;28.42;15.40;;;;;;;;;;5032682;28;20028;-70
2023/08/18 00:36:49;;;;;;;21.88;14.30;;;;;;;;;;5033397;28;20013;-66
2023/08/18 00:39:15;;;;;;;22.77;14.88;;;;;;;;;;5031793;28;20022;-68
2023/08/18 00:41:40;;;;;;;21.98;14.63;;;;;;;;;;5033156;28;20023;-68
2023/08/18 00:44:06;;;;;;;25.58;15.93;;;;;;;;;;5032869;28;20019;-69
2023/08/18 00:46:31;;;;;;;24.92;15.20;;;;;;;;;;5033125;28;20367;-70
2023/08/18 00:48:58;;;;;;;21.38;14.18;;;;;;;;;;5032734;28;20101;-70
2023/08/18 00:51:24;;;;;;;25.80;15.63;;;;;;;;;;5031364;28;20045;-69
2023/08/18 00:53:49;;;;;;;24.77;14.85;;;;;;;;;;5032598;28;20321;-65
2023/08/18 00:56:14;;;;;;;23.75;16.52;;;;;;;;;;5024841;28;20014;-70
2023/08/18 00:58:40;;;;;;;24.92;16.42;;;;;;;;;;5024297;28;20586;-66
2023/08/18 01:01:05;;;;;;;26.30;17.23;;;;;;;;;;5031980;28;20167;-69
2023/08/18 01:03:30;;;;;;;30.70;16.85;;;;;;;;;;5031771;28;20017;-69
2023/08/18 01:05:55;;;;;;;27.80;16.85;;;;;;;;;;5032467;28;20044;-70
2023/08/18 01:08:21;;;;;;;23.85;15.60;;;;;;;;;;5032196;28;20510;-69
2023/08/18 01:10:55;;;;;;;30.48;18.05;;;;;;;;;;5032459;28;20504;-70
2023/08/18 01:13:23;;;;;;;31.98;19.23;;;;;;;;;;5032147;28;20071;-70
2023/08/18 01:15:50;;;;;;;30.55;19.83;;;;;;;;;;5032257;28;20016;-69
2023/08/18 01:18:15;;;;;;;26.60;17.60;;;;;;;;;;5026026;28;20364;-70
2023/08/18 01:20:41;;;;;;;25.67;18.63;;;;;;;;;;5029463;28;20028;-68
2023/08/18 01:23:08;;;;;;;28.15;18.75;;;;;;;;;;5030747;28;20024;-69
2023/08/18 01:25:33;;;;;;;30.45;18.85;;;;;;;;;;5031594;28;20013;-68
2023/08/18 01:27:59;;;;;;;27.88;19.63;;;;;;;;;;5032165;28;20540;-70
2023/08/18 01:30:31;;;;;;;38.53;19.30;;;;;;;;;;5032755;28;20017;-68
2023/08/18 01:32:59;;;;;;;32.95;19.52;;;;;;;;;;5031859;28;20024;-67
2023/08/18 01:35:27;;;;;;;40.15;20.38;;;;;;;;;;5031569;28;20028;-69
2023/08/18 01:37:53;;;;;;;29.58;19.20;;;;;;;;;;5031956;28;20020;-69
2023/08/18 01:40:19;;;;;;;30.52;20.50;;;;;;;;;;5031940;28;20014;-69
2023/08/18 01:42:45;;;;;;;30.35;19.52;;;;;;;;;;5032073;28;20083;-69
2023/08/18 01:45:11;;;;;;;31.90;18.52;;;;;;;;;;5031954;28;20025;-67
2023/08/18 01:47:37;;;;;;;32.17;20.30;;;;;;;;;;5032127;28;20048;-69
2023/08/18 01:50:02;;;;;;;28.90;19.13;;;;;;;;;;5031591;28;20010;-69
2023/08/18 01:52:27;;;;;;;33.85;21.95;;;;;;;;;;5030697;28;20487;-68
2023/08/18 01:54:52;;;;;;;31.63;21.88;;;;;;;;;;5031112;28;20017;-69
2023/08/18 01:57:18;;;;;;;34.33;22.02;;;;;;;;;;5018829;28;20022;-68
2023/08/18 01:59:43;;;;;;;31.60;20.95;;;;;;;;;;5043717;22;20055;-66
2023/08/18 02:02:08;;;;;;;34.88;21.60;;;;;;;;;;5070543;28;20029;-67
2023/08/18 02:04:33;;;;;;;30.65;20.38;;;;;;;;;;5068860;28;20019;-67
2023/08/18 02:06:59;;;;;;;34.13;21.23;;;;;;;;;;5069375;28;20024;-67
2023/08/18 02:09:24;;;;;;;36.33;21.50;;;;;;;;;;5070135;28;20023;-64
2023/08/18 02:11:49;;;;;;;31.50;21.52;;;;;;;;;;5069174;28;20031;-68
2023/08/18 02:14:14;;;;;;;29.02;20.92;;;;;;;;;;5069431;28;20032;-69
2023/08/18 02:16:41;;;;;;;35.67;21.63;;;;;;;;;;5049335;28;20055;-67
2023/08/18 02:19:06;;;;;;;33.97;21.80;;;;;;;;;;5042761;28;20017;-65
2023/08/18 02:21:32;;;;;;;35.08;23.55;;;;;;;;;;5046313;28;20026;-68
2023/08/18 02:23:58;;;;;;;33.42;22.50;;;;;;;;;;5058069;28;20021;-70
2023/08/18 02:26:23;;;;;;;43.20;23.95;;;;;;;;;;5054054;28;20039;-69
2023/08/18 02:28:48;;;;;;;35.83;23.60;;;;;;;;;;5069994;28;20017;-68
2023/08/18 02:31:13;;;;;;;39.53;24.00;;;;;;;;;;5069104;28;20017;-66
2023/08/18 02:33:39;;;;;;;43.33;25.05;;;;;;;;;;5063581;28;20093;-67
2023/08/18 02:36:04;;;;;;;36.70;24.48;;;;;;;;;;5055226;28;20060;-66
2023/08/18 02:38:30;;;;;;;43.42;25.50;;;;;;;;;;5059295;28;20513;-69
2023/08/18 02:40:55;;;;;;;43.60;25.77;;;;;;;;;;5049530;28;20091;-68
2023/08/18 02:43:21;;;;;;;42.35;25.80;;;;;;;;;;5049522;28;20753;-68
2023/08/18 02:45:46;;;;;;;49.53;25.23;;;;;;;;;;5055212;28;20072;-66
2023/08/18 02:48:12;;;;;;;52.85;26.23;;;;;;;;;;5059199;28;20016;-69
2023/08/18 02:50:38;;;;;;;66.22;25.00;;;;;;;;;;5069088;28;20198;-69
2023/08/18 02:53:03;;;;;;;44.53;24.20;;;;;;;;;;5059662;28;20036;-65
2023/08/18 02:55:29;;;;;;;47.67;24.15;;;;;;;;;;5044623;28;20348;-68
2023/08/18 02:57:54;;;;;;;48.88;25.23;;;;;;;;;;5057087;28;20021;-66
2023/08/18 03:00:19;;;;;;;46.08;24.42;;;;;;;;;;5066871;28;20473;-67
2023/08/18 03:02:45;;;;;;;32.95;21.60;;;;;;;;;;5068811;28;20008;-69
2023/08/18 03:05:10;;;;;;;43.05;22.75;;;;;;;;;;5062573;28;20074;-68
2023/08/18 03:07:35;;;;;;;29.98;19.77;;;;;;;;;;5060383;28;20009;-67
2023/08/18 03:10:01;;;;;;;33.17;19.90;;;;;;;;;;5051559;28;20005;-69
2023/08/18 03:12:26;;;;;;;51.95;21.08;;;;;;;;;;5060165;28;20009;-67
2023/08/18 03:14:51;;;;;;;34.13;20.83;;;;;;;;;;5049299;28;20091;-68
2023/08/18 03:17:16;;;;;;;53.40;20.83;;;;;;;;;;5058892;28;20010;-68
2023/08/18 03:19:42;;;;;;;67.90;23.20;;;;;;;;;;5039544;28;20043;-68
2023/08/18 03:22:07;;;;;;;85.05;19.75;;;;;;;;;;5053648;28;20016;-69
2023/08/18 03:24:33;;;;;;;37.22;20.65;;;;;;;;;;5055533;28;20096;-65
2023/08/18 03:26:58;;;;;;;39.80;20.80;;;;;;;;;;5068643;28;20404;-67
2023/08/18 03:29:23;;;;;;;54.58;22.27;;;;;;;;;;5055111;28;20024;-67
2023/08/18 03:31:48;;;;;;;40.65;21.45;;;;;;;;;;5057063;28;20031;-68
2023/08/18 03:34:14;;;;;;;40.72;21.88;;;;;;;;;;5061803;28;20024;-67
2023/08/18 03:36:39;;;;;;;87.47;27.20;;;;;;;;;;5059236;28;20027;-67
2023/08/18 03:39:05;;;;;;;45.13;21.50;;;;;;;;;;5055122;28;20012;-68
2023/08/18 03:41:30;;;;;;;74.78;24.48;;;;;;;;;;5067433;28;20028;-70
2023/08/18 03:43:55;;;;;;;47.33;24.17;;;;;;;;;;5063774;28;20015;-66
2023/08/18 03:46:28;;;;;;;42.78;22.90;;;;;;;;;;5058674;28;20543;-66
2023/08/18 03:48:54;;;;;;;83.45;23.65;;;;;;;;;;5064369;28;20374;-67
2023/08/18 03:51:19;;;;;;;79.30;24.58;;;;;;;;;;5048477;28;20016;-67
2023/08/18 03:53:44;;;;;;;39.95;23.15;;;;;;;;;;5065081;28;20138;-68
2023/08/18 03:56:10;;;;;;;42.38;24.35;;;;;;;;;;5057341;28;20467;-67
2023/08/18 03:58:35;;;;;;;50.20;25.02;;;;;;;;;;5046795;28;20104;-64
2023/08/18 04:01:01;;;;;;;51.35;24.55;;;;;;;;;;5054802;28;20027;-68
2023/08/18 04:03:26;;;;;;;85.15;24.90;;;;;;;;;;5066916;28;20051;-67
2023/08/18 04:05:52;;;;;;;43.90;24.88;;;;;;;;;;5058820;28;20021;-66
2023/08/18 04:08:17;;;;;;;41.05;23.58;;;;;;;;;;5052274;28;20540;-67
2023/08/18 04:10:42;;;;;;;46.67;23.25;;;;;;;;;;5058222;28;20383;-67
2023/08/18 04:13:07;;;;;;;46.38;21.45;;;;;;;;;;5047997;28;20020;-68
2023/08/18 04:15:33;;;;;;;46.17;24.83;;;;;;;;;;5049505;28;20111;-66
2023/08/18 04:17:58;;;;;;;60.10;24.13;;;;;;;;;;5054145;28;20111;-67
2023/08/18 04:20:24;;;;;;;54.92;22.45;;;;;;;;;;5033121;28;20018;-64
2023/08/18 04:22:49;;;;;;;159.43;25.38;;;;;;;;;;5050051;28;20083;-67
2023/08/18 04:25:14;;;;;;;74.10;24.05;;;;;;;;;;5068116;28;20028;-70
2023/08/18 04:27:40;;;;;;;84.20;24.77;;;;;;;;;;5068143;28;20396;-67
2023/08/18 04:30:06;;;;;;;92.53;23.63;;;;;;;;;;5058732;28;20013;-67
2023/08/18 04:32:31;;;;;;;76.20;23.48;;;;;;;;;;5048645;28;20033;-65
2023/08/18 04:34:57;;;;;;;96.18;22.70;;;;;;;;;;5047841;28;20013;-66
2023/08/18 04:37:23;;;;;;;75.40;26.10;;;;;;;;;;5064040;28;20469;-68
2023/08/18 04:39:48;;;;;;;46.03;22.42;;;;;;;;;;5056175;28;20367;-68
2023/08/18 04:42:13;;;;;;;82.78;24.27;;;;;;;;;;5051359;28;20025;-67
2023/08/18 04:44:38;;;;;;;45.67;22.85;;;;;;;;;;5056940;28;20035;-66
2023/08/18 04:47:05;;;;;;;66.82;25.98;;;;;;;;;;5065020;28;20024;-67
2023/08/18 04:49:30;;;;;;;42.40;23.95;;;;;;;;;;5047790;28;20017;-64
2023/08/18 04:51:55;;;;;;;60.22;25.15;;;;;;;;;;5061257;28;20492;-69
2023/08/18 04:54:20;;;;;;;42.55;22.73;;;;;;;;;;5047386;28;20025;-66
2023/08/18 04:56:46;;;;;;;42.67;22.93;;;;;;;;;;5042235;28;20034;-67
2023/08/18 04:59:11;;;;;;;38.05;22.13;;;;;;;;;;5047714;28;20242;-66
2023/08/18 05:01:36;;;;;;;42.25;22.60;;;;;;;;;;5047540;28;20028;-67
2023/08/18 05:04:02;;;;;;;36.20;21.80;;;;;;;;;;5046398;28;20041;-68
2023/08/18 05:06:27;;;;;;;41.88;22.50;;;;;;;;;;5045992;28;20344;-67
2023/08/18 05:08:52;;;;;;;47.03;23.27;;;;;;;;;;5050505;28;20693;-67
2023/08/18 05:11:17;;;;;;;46.25;23.70;;;;;;;;;;5052590;28;20059;-67
2023/08/18 05:13:43;;;;;;;52.40;23.20;;;;;;;;;;5062997;28;20371;-67
2023/08/18 05:16:08;;;;;;;38.42;21.85;;;;;;;;;;5052505;28;20107;-67
2023/08/18 05:18:34;;;;;;;41.25;23.48;;;;;;;;;;5048567;28;20363;-68
2023/08/18 05:21:00;;;;;;;44.65;23.13;;;;;;;;;;5042267;28;20150;-66
2023/08/18 05:23:25;;;;;;;42.83;22.13;;;;;;;;;;5050310;28;20494;-69
2023/08/18 05:25:54;;;;;;;39.75;22.00;;;;;;;;;;5064723;28;20096;-67
2023/08/18 05:28:23;;;;;;;36.78;21.13;;;;;;;;;;5070689;28;20454;-67
2023/08/18 05:30:48;;;;;;;;;;;;;;;;;;5061724;28;20100;-64
2023/08/18 05:33:14;;;;;;;35.10;19.97;;;;;;;;;;5054223;28;20426;-68
2023/08/18 05:35:39;;;;;;;39.00;20.60;;;;;;;;;;5051600;28;20262;-68
2023/08/18 05:38:10;;;;;;;43.35;21.95;;;;;;;;;;5061996;28;20044;-68
2023/08/18 05:40:36;;;;;;;48.00;24.10;;;;;;;;;;5053493;28;20040;-69
2023/08/18 05:43:01;;;;;;;44.95;23.00;;;;;;;;;;5049658;28;20017;-68
2023/08/18 05:45:27;;;;;;;50.33;23.08;;;;;;;;;;5052112;28;20013;-68
2023/08/18 05:47:52;;;;;;;51.45;24.73;;;;;;;;;;5051968;28;20009;-68
2023/08/18 05:50:17;;;;;;;51.60;25.20;;;;;;;;;;5050385;28;20135;-68
2023/08/18 05:52:43;;;;;;;44.90;22.80;;;;;;;;;;5054095;28;20013;-67
2023/08/18 05:55:08;;;;;;;41.75;21.70;;;;;;;;;;5052756;28;20061;-67
2023/08/18 05:57:35;;;;;;;39.58;22.55;;;;;;;;;;5048805;28;20041;-68
2023/08/18 06:00:00;;;;;;;44.08;23.23;;;;;;;;;;5057022;28;20032;-70
2023/08/18 06:02:25;;;;;;;42.92;21.42;;;;;;;;;;5062919;28;20036;-67
2023/08/18 06:04:50;;;;;;;35.42;20.05;;;;;;;;;;5046775;28;20016;-70
2023/08/18 06:07:16;;;;;;;39.20;21.80;;;;;;;;;;5045553;28;20025;-68
2023/08/18 06:09:41;;;;;;;38.92;22.35;;;;;;;;;;5047418;28;20442;-68
2023/08/18 06:12:06;;;;;;;48.25;23.08;;;;;;;;;;5055231;28;20013;-68
2023/08/18 06:14:31;;;;;;;38.33;20.52;;;;;;;;;;5069891;28;20035;-69
2023/08/18 06:16:57;;;;;;;33.22;19.23;;;;;;;;;;5055514;28;20077;-68
2023/08/18 06:19:22;;;;;;;32.33;18.27;;;;;;;;;;5051429;28;20037;-68
2023/08/18 06:21:47;;;;;;;37.25;21.02;;;;;;;;;;5057935;28;20017;-66
2023/08/18 06:24:13;;;;;;;32.53;18.48;;;;;;;;;;5062200;28;20025;-68
2023/08/18 06:26:38;;;;;;;33.35;19.42;;;;;;;;;;5063326;28;20016;-66
2023/08/18 06:29:03;;;;;;;38.00;20.65;;;;;;;;;;5055883;28;20217;-68
2023/08/18 06:31:28;;;;;;;33.78;19.63;;;;;;;;;;5069279;28;20043;-68
2023/08/18 06:33:54;;;;;;;31.75;19.73;;;;;;;;;;5055995;28;20048;-65
2023/08/18 06:36:20;;;;;;;29.73;17.20;;;;;;;;;;5048793;28;20024;-66
2023/08/18 06:38:45;;;;;;;33.30;19.02;;;;;;;;;;5038147;28;20024;-68
2023/08/18 06:41:10;;;;;;;36.50;20.13;;;;;;;;;;5045181;28;20087;-70
2023/08/18 06:43:35;;;;;;;36.10;20.55;;;;;;;;;;5047733;28;20254;-67
2023/08/18 06:46:00;;;;;;;37.25;20.25;;;;;;;;;;5041180;28;20023;-69
2023/08/18 06:48:26;;;;;;;32.80;18.90;;;;;;;;;;5044262;28;20032;-66
2023/08/18 06:50:51;;;;;;;38.63;22.00;;;;;;;;;;5039812;28;20013;-69
2023/08/18 06:53:16;;;;;;;45.00;21.87;;;;;;;;;;5034679;28;20790;-66
2023/08/18 06:55:41;;;;;;;39.35;21.92;;;;;;;;;;5043759;28;20258;-68
2023/08/18 06:58:06;;;;;;;37.95;21.25;;;;;;;;;;5047196;28;20013;-67
2023/08/18 07:00:32;;;;;;;38.65;22.05;;;;;;;;;;5044322;28;20024;-67
2023/08/18 07:02:57;;;;;;;42.40;22.33;;;;;;;;;;5036141;28;20061;-69
2023/08/18 07:05:24;;;;;;;44.03;23.05;;;;;;;;;;5052281;28;20107;-68
2023/08/18 07:07:50;;;;;;;44.47;23.45;;;;;;;;;;5036100;28;20017;-68
2023/08/18 07:10:16;;;;;;;40.78;22.85;;;;;;;;;;5048677;28;20070;-68
2023/08/18 07:12:42;;;;;;;40.80;23.50;;;;;;;;;;5039156;28;20017;-68
2023/08/18 07:15:07;;;;;;;41.88;23.90;;;;;;;;;;5037110;28;20013;-69
2023/08/18 07:17:32;;;;;;;40.78;21.80;;;;;;;;;;5038525;28;20046;-66
2023/08/18 07:19:57;;;;;;;46.75;23.02;;;;;;;;;;5051944;28;20048;-66
2023/08/18 07:22:23;;;;;;;38.92;21.20;;;;;;;;;;5053524;28;20100;-68
2023/08/18 07:24:48;;;;;;;40.78;22.33;;;;;;;;;;5050385;28;20038;-67
2023/08/18 07:27:14;;;;;;;44.03;25.00;;;;;;;;;;5052260;28;20029;-65
2023/08/18 07:29:39;;;;;;;40.63;21.88;;;;;;;;;;5046001;28;20084;-68
2023/08/18 07:32:04;;;;;;;42.75;23.77;;;;;;;;;;5053806;28;20100;-65
2023/08/18 07:34:29;;;;;;;40.95;22.10;;;;;;;;;;5038492;28;20018;-67
2023/08/18 07:36:55;;;;;;;42.63;21.83;;;;;;;;;;5066478;28;20408;-67
2023/08/18 07:39:20;;;;;;;42.45;22.35;;;;;;;;;;5054165;28;20051;-69
2023/08/18 07:41:45;;;;;;;42.03;21.25;;;;;;;;;;5061784;28;20044;-69
2023/08/18 07:44:10;;;;;;;39.55;21.60;;;;;;;;;;5048371;28;20024;-67
2023/08/18 07:46:36;;;;;;;37.80;20.33;;;;;;;;;;5065844;28;20036;-68
2023/08/18 07:49:02;;;;;;;38.08;19.42;;;;;;;;;;5067544;28;20056;-71
2023/08/18 07:51:27;;;;;;;39.20;20.67;;;;;;;;;;5067876;28;20013;-68
2023/08/18 07:53:53;;;;;;;39.78;20.80;;;;;;;;;;5068165;28;20017;-67
2023/08/18 07:56:18;;;;;;;38.00;21.23;;;;;;;;;;5050485;28;20431;-68
2023/08/18 07:58:43;;;;;;;35.28;20.58;;;;;;;;;;5050209;28;20016;-65
2023/08/18 08:01:08;;;;;;;36.95;20.92;;;;;;;;;;5060289;28;20024;-68
2023/08/18 08:03:35;;;;;;;34.38;18.95;;;;;;;;;;5058008;28;20029;-64
2023/08/18 08:06:01;;;;;;;32.13;19.13;;;;;;;;;;5068004;28;20020;-67
2023/08/18 08:08:27;;;;;;;26.05;15.73;;;;;;;;;;5054979;28;20047;-71
2023/08/18 08:10:52;;;;;;;31.77;17.10;;;;;;;;;;5068182;28;20036;-69
2023/08/18 08:13:17;;;;;;;25.98;14.57;;;;;;;;;;5067949;28;20099;-69
2023/08/18 08:15:45;;;;;;;30.95;16.13;;;;;;;;;;5061890;28;20028;-68
2023/08/18 08:18:13;;;;;;;39.73;17.17;;;;;;;;;;5049216;28;20051;-69
2023/08/18 08:20:38;;;;;;;34.60;15.15;;;;;;;;;;5035801;28;20349;-67
2023/08/18 08:23:04;;;;;;;33.28;15.35;;;;;;;;;;5047766;28;20467;-65
2023/08/18 08:25:29;;;;;;;28.30;15.82;;;;;;;;;;5047815;28;20066;-69
2023/08/18 08:27:54;;;;;;;25.98;15.35;;;;;;;;;;5047640;28;20021;-67
2023/08/18 08:30:19;;;;;;;23.17;13.27;;;;;;;;;;5047571;28;20131;-67
2023/08/18 08:32:45;;;;;;;30.58;15.02;;;;;;;;;;5051471;28;20135;-67
2023/08/18 08:35:10;;;;;;;29.33;14.80;;;;;;;;;;5057868;28;20052;-68
2023/08/18 08:37:35;;;;;;;29.02;16.20;;;;;;;;;;5064953;28;20013;-66
2023/08/18 08:40:00;;;;;;;28.45;14.23;;;;;;;;;;5063088;28;20147;-67
2023/08/18 08:42:26;;;;;;;27.88;13.50;;;;;;;;;;5053729;28;20073;-69
2023/08/18 08:44:51;;;;;;;25.15;15.95;;;;;;;;;;5051250;28;20106;-69
2023/08/18 08:47:17;;;;;;;32.58;16.30;;;;;;;;;;5056285;28;20529;-68
2023/08/18 08:49:43;;;;;;;27.13;14.70;;;;;;;;;;5059890;28;20032;-68
2023/08/18 08:52:19;;;;;;;28.70;15.38;;;;;;;;;;5065134;28;20454;-67
2023/08/18 08:54:51;;;;;;;29.20;13.40;;;;;;;;;;5063780;28;20027;-67
2023/08/18 08:57:17;;;;;;;25.92;13.73;;;;;;;;;;5052937;28;20046;-68
2023/08/18 08:59:42;;;;;;;27.50;13.90;;;;;;;;;;5051710;28;20383;-71
2023/08/18 09:02:08;;;;;;;28.67;14.73;;;;;;;;;;5051884;28;20070;-68
2023/08/18 09:04:33;;;;;;;26.35;14.98;;;;;;;;;;5064084;28;20464;-66
2023/08/18 09:06:58;;;;;;;30.02;15.95;;;;;;;;;;5056061;28;20025;-67
2023/08/18 09:09:24;;;;;;;27.77;14.98;;;;;;;;;;5071478;28;20021;-64
2023/08/18 09:11:49;;;;;;;29.10;15.80;;;;;;;;;;5057938;28;20454;-69
2023/08/18 09:14:15;;;;;;;22.92;12.48;;;;;;;;;;5070730;28;20005;-67
2023/08/18 09:16:42;;;;;;;24.88;12.70;;;;;;;;;;5050338;28;20032;-72
2023/08/18 09:19:10;;;;;;;25.05;15.13;;;;;;;;;;5051475;28;20022;-69
2023/08/18 09:21:35;;;;;;;30.63;14.77;;;;;;;;;;5046516;28;20027;-68
2023/08/18 09:24:01;;;;;;;27.40;14.70;;;;;;;;;;5070733;28;20099;-68
2023/08/18 09:26:26;;;;;;;23.10;12.87;;;;;;;;;;5064213;28;20537;-66
2023/08/18 09:28:51;;;;;;;27.58;13.35;;;;;;;;;;5050819;28;20708;-67
2023/08/18 09:31:18;;;;;;;24.77;13.48;;;;;;;;;;5069375;28;20023;-67
2023/08/18 09:33:43;;;;;;;23.90;14.80;;;;;;;;;;5057620;28;20018;-66
2023/08/18 09:36:12;;;;;;;29.42;15.43;;;;;;;;;;5069530;28;20016;-68
2023/08/18 09:38:38;;;;;;;28.88;13.27;;;;;;;;;;5060634;28;20027;-70
2023/08/18 09:41:03;;;;;;;26.35;14.18;;;;;;;;;;5055633;28;20008;-65
2023/08/18 09:43:28;;;;;;;23.98;14.23;;;;;;;;;;5070504;28;20025;-66
2023/08/18 09:45:54;;;;;;;32.63;15.93;;;;;;;;;;5056865;28;20015;-66
2023/08/18 09:48:21;;;;;;;30.08;15.55;;;;;;;;;;5058294;28;20024;-67
2023/08/18 09:50:49;;;;;;;27.05;14.18;;;;;;;;;;5051123;28;20474;-66
2023/08/18 09:53:14;;;;;;;26.73;15.45;;;;;;;;;;5050320;28;20017;-68
2023/08/18 09:55:43;;;;;;;39.80;15.90;;;;;;;;;;5050152;28;20091;-68
2023/08/18 09:58:08;;;;;;;28.80;14.60;;;;;;;;;;5058843;28;20426;-68
2023/08/18 10:00:34;;;;;;;30.77;15.97;;;;;;;;;;5062359;28;20048;-67
2023/08/18 10:03:00;;;;;;;25.63;13.63;;;;;;;;;;5062842;28;20253;-66
2023/08/18 10:05:26;;;;;;;28.00;15.25;;;;;;;;;;5058699;28;20025;-70
2023/08/18 10:07:51;;;;;;;26.25;15.38;;;;;;;;;;5063297;28;20052;-68
2023/08/18 10:10:18;;;;;;;27.23;15.05;;;;;;;;;;5070162;28;20067;-66
2023/08/18 10:12:43;;;;;;;25.63;15.10;;;;;;;;;;5070118;28;20027;-64
2023/08/18 10:15:08;;;;;;;31.40;15.60;;;;;;;;;;5069853;28;20024;-69
2023/08/18 10:17:34;;;;;;;29.73;14.77;;;;;;;;;;5055241;28;20020;-66
2023/08/18 10:20:00;;;;;;;27.48;15.05;;;;;;;;;;5043611;28;20501;-67
2023/08/18 10:22:29;;;;;;;25.10;14.38;;;;;;;;;;5059407;28;20428;-66
2023/08/18 10:24:55;;;;;;;23.75;14.85;;;;;;;;;;5056113;28;20489;-68
2023/08/18 10:27:26;;;;;;;29.08;14.52;;;;;;;;;;5069522;28;20032;-70
2023/08/18 10:29:55;;;;;;;27.80;14.15;;;;;;;;;;5061469;28;20013;-67
2023/08/18 10:32:22;;;;;;;29.63;14.85;;;;;;;;;;5058198;28;20017;-67
2023/08/18 10:34:47;;;;;;;24.95;14.43;;;;;;;;;;5050170;28;20056;-67
2023/08/18 10:37:14;;;;;;;37.35;16.13;;;;;;;;;;5063565;28;20051;-67
2023/08/18 10:39:40;;;;;;;28.33;15.48;;;;;;;;;;5056924;28;20484;-67
2023/08/18 10:42:15;;;;;;;29.48;15.30;;;;;;;;;;5069142;28;20016;-68
2023/08/18 10:44:59;;;;;;;24.38;15.07;;;;;;;;;;5059695;28;20509;-67
2023/08/18 10:47:28;;;;;;;29.80;16.65;;;;;;;;;;5053395;28;20381;-67
2023/08/18 10:49:53;;;;;;;26.17;14.98;;;;;;;;;;5067965;28;20461;-68
2023/08/18 10:52:19;;;;;;;29.40;15.30;;;;;;;;;;5055705;28;20029;-67
2023/08/18 10:54:44;;;;;;;23.95;15.65;;;;;;;;;;5068913;28;20241;-66
2023/08/18 10:57:09;;;;;;;25.65;14.30;;;;;;;;;;5043655;28;20013;-67
2023/08/18 10:59:35;;;;;;;34.10;15.67;;;;;;;;;;5048476;28;20013;-65
2023/08/18 11:02:00;;;;;;;26.60;15.13;;;;;;;;;;5049072;28;20253;-66
2023/08/18 11:04:25;;;;;;;23.17;14.88;;;;;;;;;;5048826;28;20249;-67
2023/08/18 11:06:51;;;;;;;25.38;15.38;;;;;;;;;;5055326;28;20028;-66
2023/08/18 11:09:16;;;;;;;21.35;14.38;;;;;;;;;;5057025;28;20630;-68
2023/08/18 11:11:42;;;;;;;24.90;15.77;;;;;;;;;;5046551;28;20016;-66
2023/08/18 11:14:07;;;;;;;24.67;16.15;;;;;;;;;;5046403;28;20010;-64
2023/08/18 11:16:34;;;;;;;18.88;13.13;;;;;;;;;;5069841;28;20155;-69
2023/08/18 11:19:00;;;;;;;23.75;15.07;;;;;;;;;;5046367;28;20025;-68
2023/08/18 11:21:25;;;;;;;22.83;14.90;;;;;;;;;;5044916;28;20067;-68
2023/08/18 11:23:51;;;;;;;26.77;14.80;;;;;;;;;;5038985;28;20028;-68
2023/08/18 11:26:17;;;;;;;25.00;15.40;;;;;;;;;;5037585;28;20052;-64
2023/08/18 11:28:42;;;;;;;22.63;15.55;;;;;;;;;;5048766;28;20040;-68
2023/08/18 11:31:08;;;;;;;28.25;18.27;;;;;;;;;;5038218;28;20009;-65
2023/08/18 11:33:33;;;;;;;21.48;15.23;;;;;;;;;;5040588;28;20028;-67
2023/08/18 11:35:59;;;;;;;23.02;16.13;;;;;;;;;;5037227;28;20025;-67
2023/08/18 11:38:24;;;;;;;22.77;15.55;;;;;;;;;;5039596;28;20143;-68
2023/08/18 11:40:50;;;;;;;25.15;15.98;;;;;;;;;;5038183;28;20017;-67
2023/08/18 11:43:15;;;;;;;24.55;15.45;;;;;;;;;;5045055;28;20108;-67
2023/08/18 11:45:40;;;;;;;26.42;15.90;;;;;;;;;;5061885;28;20111;-67
2023/08/18 11:48:07;;;;;;;24.17;16.23;;;;;;;;;;5050498;28;20119;-65
2023/08/18 11:50:33;;;;;;;20.48;14.45;;;;;;;;;;5065107;28;20253;-66
2023/08/18 11:52:58;;;;;;;22.65;13.80;;;;;;;;;;5053337;28;20013;-68
2023/08/18 11:55:38;;;;;;;29.95;16.65;;;;;;;;;;5034713;28;20114;-68
2023/08/18 11:58:11;;;;;;;23.88;14.82;;;;;;;;;;5028549;28;20021;-69
2023/08/18 12:00:39;;;;;;;26.90;17.55;;;;;;;;;;5029010;28;20514;-67
2023/08/18 12:03:06;;;;;;;23.75;15.77;;;;;;;;;;5032035;28;20033;-69
2023/08/18 12:05:31;;;;;;;25.48;16.65;;;;;;;;;;5035070;28;20071;-71
2023/08/18 12:07:57;;;;;;;25.17;16.02;;;;;;;;;;5028812;28;20041;-70
2023/08/18 12:10:22;;;;;;;24.30;14.98;;;;;;;;;;5037634;28;20027;-68
2023/08/18 12:12:54;;;;;;;22.57;13.77;;;;;;;;;;5037971;28;20090;-66
2023/08/18 12:15:21;;;;;;;29.00;14.85;;;;;;;;;;5038809;28;20262;-68
2023/08/18 12:17:46;;;;;;;22.75;15.32;;;;;;;;;;5035815;28;20025;-69
2023/08/18 12:20:11;;;;;;;22.60;15.38;;;;;;;;;;5036238;28;20076;-68
2023/08/18 12:22:36;;;;;;;21.42;14.50;;;;;;;;;;5038835;28;20124;-68
2023/08/18 12:25:03;;;;;;;24.07;15.40;;;;;;;;;;5038631;28;20060;-66
2023/08/18 12:27:29;;;;;;;25.25;16.10;;;;;;;;;;5035372;28;20328;-66
2023/08/18 12:29:54;;;;;;;26.20;15.70;;;;;;;;;;5044349;28;20024;-69
2023/08/18 12:32:19;;;;;;;22.20;14.60;;;;;;;;;;5032830;28;20025;-64
2023/08/18 12:34:49;;;;;;;22.08;14.35;;;;;;;;;;5035369;28;20025;-65
2023/08/18 12:37:15;;;;;;;19.70;13.68;;;;;;;;;;5032139;28;20140;-65
2023/08/18 12:39:42;;;;;;;24.83;13.47;;;;;;;;;;5037162;28;20088;-66
2023/08/18 12:42:07;;;;;;;22.45;14.45;;;;;;;;;;5038040;28;20246;-70
2023/08/18 12:44:32;;;;;;;22.93;14.37;;;;;;;;;;5036140;28;20025;-67
2023/08/18 12:46:57;;;;;;;17.77;12.50;;;;;;;;;;5034639;28;20270;-68
2023/08/18 12:49:24;;;;;;;25.27;14.33;;;;;;;;;;5037853;28;20254;-68
2023/08/18 12:51:49;;;;;;;22.20;14.35;;;;;;;;;;5035191;28;20288;-64
2023/08/18 12:54:15;;;;;;;25.27;14.52;;;;;;;;;;5035597;28;20025;-67
2023/08/18 12:56:40;;;;;;;20.53;13.83;;;;;;;;;;5038451;28;20017;-67
2023/08/18 12:59:05;;;;;;;18.60;12.70;;;;;;;;;;5035397;28;20832;-69
2023/08/18 13:01:30;;;;;;;24.73;13.93;;;;;;;;;;5036503;28;20285;-68
2023/08/18 13:03:55;;;;;;;20.45;14.05;;;;;;;;;;5036453;28;20258;-69
2023/08/18 13:06:21;;;;;;;25.13;13.13;;;;;;;;;;5038704;28;20121;-65
2023/08/18 13:08:46;;;;;;;19.98;13.68;;;;;;;;;;5037117;28;20039;-67
2023/08/18 13:11:12;;;;;;;22.80;13.38;;;;;;;;;;5040775;28;20040;-66
2023/08/18 13:13:37;;;;;;;19.42;13.25;;;;;;;;;;5032133;28;20056;-68
2023/08/18 13:16:02;;;;;;;20.10;12.05;;;;;;;;;;5036492;28;20604;-69
2023/08/18 13:18:28;;;;;;;18.48;12.65;;;;;;;;;;5034614;28;20037;-69
2023/08/18 13:20:53;;;;;;;18.50;12.90;;;;;;;;;;5035674;28;20124;-68
2023/08/18 13:23:18;;;;;;;18.93;13.20;;;;;;;;;;5034523;28;20029;-65
2023/08/18 13:25:43;;;;;;;18.83;13.43;;;;;;;;;;5029229;28;20755;-68
2023/08/18 13:28:09;;;;;;;18.58;12.50;;;;;;;;;;5036566;28;20369;-67
2023/08/18 13:30:34;;;;;;;17.73;11.77;;;;;;;;;;5039105;28;20552;-67
2023/08/18 13:32:59;;;;;;;19.03;12.83;;;;;;;;;;5037147;28;20471;-67
2023/08/18 13:35:24;;;;;;;21.42;13.27;;;;;;;;;;5032658;28;20275;-68
2023/08/18 13:37:50;;;;;;;17.33;11.70;;;;;;;;;;5036439;28;20384;-64
2023/08/18 13:40:15;;;;;;;17.25;11.82;;;;;;;;;;5035449;28;20029;-68
2023/08/18 13:42:40;;;;;;;15.18;11.00;;;;;;;;;;5032956;28;20084;-67
2023/08/18 13:45:06;;;;;;;19.95;11.57;;;;;;;;;;5035535;28;20370;-71
2023/08/18 13:47:31;;;;;;;20.25;11.80;;;;;;;;;;5031262;28;20040;-69
2023/08/18 13:49:56;;;;;;;17.00;11.70;;;;;;;;;;5052468;28;20024;-65
2023/08/18 13:52:21;;;;;;;16.38;12.02;;;;;;;;;;5066627;28;20260;-68
2023/08/18 13:54:47;;;;;;;24.58;13.07;;;;;;;;;;5053343;28;20019;-66
2023/08/18 13:57:14;;;;;;;18.37;12.57;;;;;;;;;;5065965;28;20040;-68
2023/08/18 13:59:51;;;;;;;18.75;11.98;;;;;;;;;;5062639;28;20238;-66
2023/08/18 14:02:17;;;;;;;19.55;11.85;;;;;;;;;;5048312;28;20449;-68
2023/08/18 14:04:42;;;;;;;16.45;12.00;;;;;;;;;;5046880;28;20115;-66
2023/08/18 14:07:07;;;;;;;18.03;11.67;;;;;;;;;;5062337;28;20017;-66